createdAt,value
2017-12-03T00:00:11.483Z,56.57
2017-12-03T00:02:39.527Z,55.27
2017-12-03T00:05:08.394Z,54.60
2017-12-03T00:07:36.579Z,56.50
2017-12-03T00:10:04.598Z,58.77
2017-12-03T00:12:32.762Z,62.90
2017-12-03T00:15:00.762Z,56.43
2017-12-03T00:17:28.805Z,57.37
2017-12-03T00:19:56.976Z,57.47
2017-12-03T00:22:25.172Z,57.63
2017-12-03T00:24:53.216Z,56.90
2017-12-03T00:27:22.147Z,57.77
2017-12-03T00:29:50.204Z,54.13
2017-12-03T00:32:18.235Z,53.07
2017-12-03T00:34:46.490Z,55.10
2017-12-03T00:37:14.498Z,54.63
2017-12-03T00:39:43.251Z,56.40
2017-12-03T00:42:11.411Z,56.53
2017-12-03T00:44:39.426Z,57.80
2017-12-03T00:47:08.166Z,57.43
2017-12-03T00:49:36.306Z,52.37
2017-12-03T00:52:05.067Z,54.33
2017-12-03T00:54:33.111Z,55.37
2017-12-03T00:57:01.288Z,53.17
2017-12-03T00:59:29.310Z,56.70
2017-12-03T01:01:58.063Z,55.57
2017-12-03T01:04:26.252Z,60.80
2017-12-03T01:06:54.311Z,58.70
2017-12-03T01:09:22.462Z,60.00
2017-12-03T01:11:50.587Z,60.07
2017-12-03T01:14:19.371Z,60.97
2017-12-03T01:16:47.476Z,59.07
2017-12-03T01:19:15.607Z,59.13
2017-12-03T01:21:43.633Z,63.60
2017-12-03T01:24:11.666Z,59.27
2017-12-03T01:26:40.683Z,60.20
2017-12-03T01:29:08.763Z,57.13
2017-12-03T01:31:36.782Z,59.00
2017-12-03T01:34:04.914Z,61.20
2017-12-03T01:36:33.086Z,58.23
2017-12-03T01:39:01.103Z,61.03
2017-12-03T01:41:29.275Z,59.43
2017-12-03T01:43:57.355Z,62.33
2017-12-03T01:46:25.424Z,63.67
2017-12-03T01:48:53.619Z,61.00
2017-12-03T01:51:21.690Z,64.27
2017-12-03T01:53:50.503Z,65.93
2017-12-03T01:56:19.531Z,65.50
2017-12-03T01:58:47.694Z,65.53
2017-12-03T02:01:15.735Z,67.40
2017-12-03T02:03:44.635Z,62.10
2017-12-03T02:06:13.035Z,65.03
2017-12-03T02:08:41.187Z,63.87
2017-12-03T02:11:10.268Z,63.17
2017-12-03T02:13:39.060Z,61.17
2017-12-03T02:16:07.863Z,64.33
2017-12-03T02:18:36.807Z,68.97
2017-12-03T02:21:05.043Z,65.40
2017-12-03T02:23:33.078Z,63.97
2017-12-03T02:26:01.219Z,65.00
2017-12-03T02:28:29.279Z,67.53
2017-12-03T02:30:57.307Z,66.00
2017-12-03T02:33:26.292Z,63.00
2017-12-03T02:35:54.319Z,64.57
2017-12-03T02:38:22.544Z,68.70
2017-12-03T02:40:50.688Z,67.53
2017-12-03T02:43:18.723Z,70.73
2017-12-03T02:45:46.748Z,71.47
2017-12-03T02:48:15.154Z,70.33
2017-12-03T02:50:43.947Z,73.13
2017-12-03T02:53:12.732Z,74.37
2017-12-03T02:55:41.711Z,73.17
2017-12-03T02:58:09.832Z,73.00
2017-12-03T03:00:37.919Z,76.43
2017-12-03T03:03:06.102Z,71.20
2017-12-03T03:05:34.192Z,70.07
2017-12-03T03:08:02.259Z,69.73
2017-12-03T03:10:30.459Z,77.10
2017-12-03T03:12:58.575Z,80.20
2017-12-03T03:15:26.774Z,79.80
2017-12-03T03:17:54.976Z,80.03
2017-12-03T03:20:23.014Z,81.77
2017-12-03T03:22:51.038Z,74.87
2017-12-03T03:25:19.977Z,75.13
2017-12-03T03:27:48.099Z,74.30
2017-12-03T03:30:16.125Z,72.17
2017-12-03T03:32:44.282Z,70.83
2017-12-03T03:35:12.463Z,75.77
2017-12-03T03:37:40.772Z,73.13
2017-12-03T03:40:09.291Z,69.77
2017-12-03T03:42:37.404Z,67.07
2017-12-03T03:45:05.430Z,62.90
2017-12-03T03:47:33.648Z,62.13
2017-12-03T03:50:01.695Z,64.50
2017-12-03T03:52:30.469Z,63.37
2017-12-03T03:54:58.616Z,60.00
2017-12-03T03:57:26.927Z,63.53
2017-12-03T03:59:55.756Z,67.00
2017-12-03T04:02:23.982Z,64.27
2017-12-03T04:04:52.300Z,82.03
2017-12-03T04:07:20.318Z,70.23
2017-12-03T04:09:48.465Z,74.33
2017-12-03T04:12:16.735Z,75.97
2017-12-03T04:14:44.772Z,69.10
2017-12-03T04:17:13.675Z,73.10
2017-12-03T04:19:42.551Z,67.80
2017-12-03T04:22:10.715Z,70.60
2017-12-03T04:24:38.898Z,69.87
2017-12-03T04:27:07.087Z,67.13
2017-12-03T04:29:36.011Z,69.93
2017-12-03T04:32:04.294Z,67.97
2017-12-03T04:34:32.495Z,66.00
2017-12-03T04:37:00.925Z,63.37
2017-12-03T04:39:30.051Z,68.10
2017-12-03T04:41:58.427Z,65.37
2017-12-03T04:44:26.762Z,63.43
2017-12-03T04:46:55.847Z,61.97
2017-12-03T04:49:24.023Z,68.70
2017-12-03T04:51:52.102Z,64.07
2017-12-03T04:54:20.311Z,65.57
2017-12-03T04:56:48.547Z,62.23
2017-12-03T04:59:16.659Z,63.03
2017-12-03T05:01:44.911Z,59.73
2017-12-03T05:04:13.819Z,59.30
2017-12-03T05:06:42.667Z,58.63
2017-12-03T05:09:11.123Z,55.77
2017-12-03T05:11:39.247Z,54.33
2017-12-03T05:14:07.377Z,54.77
2017-12-03T05:16:35.809Z,54.17
2017-12-03T05:19:04.079Z,64.53
2017-12-03T05:21:32.155Z,54.83
2017-12-03T05:24:01.188Z,58.07
2017-12-03T05:26:29.383Z,56.93
2017-12-03T05:28:57.627Z,62.73
2017-12-03T05:31:25.959Z,51.13
2017-12-03T05:33:54.117Z,54.67
2017-12-03T05:36:22.288Z,44.77
2017-12-03T05:38:50.659Z,45.33
2017-12-03T05:41:18.755Z,41.60
2017-12-03T05:43:47.089Z,41.00
2017-12-03T05:46:15.400Z,49.33
2017-12-03T05:48:43.592Z,38.03
2017-12-03T05:51:11.752Z,41.27
2017-12-03T05:53:40.015Z,41.90
2017-12-03T05:56:08.192Z,44.57
2017-12-03T05:58:36.463Z,45.30
2017-12-03T06:01:04.915Z,35.80
2017-12-03T06:03:33.884Z,29.33
2017-12-03T06:06:02.015Z,41.20
2017-12-03T06:08:30.535Z,30.60
2017-12-03T06:10:58.695Z,25.00
2017-12-03T06:13:26.891Z,26.57
2017-12-03T06:15:55.090Z,33.70
2017-12-03T06:18:24.034Z,32.40
2017-12-03T06:20:52.372Z,35.27
2017-12-03T06:23:21.444Z,22.17
2017-12-03T06:25:49.584Z,33.80
2017-12-03T06:28:17.700Z,30.57
2017-12-03T06:30:46.779Z,17.07
2017-12-03T06:33:15.019Z,23.07
2017-12-03T06:35:43.147Z,25.57
2017-12-03T06:38:11.410Z,30.87
2017-12-03T06:40:39.695Z,24.17
2017-12-03T06:43:07.811Z,21.10
2017-12-03T06:45:36.272Z,16.93
2017-12-03T06:48:05.059Z,24.83
2017-12-03T06:50:33.925Z,17.17
2017-12-03T06:53:02.201Z,30.13
2017-12-03T06:55:30.519Z,18.07
2017-12-03T06:57:59.371Z,17.93
2017-12-03T07:00:27.779Z,17.63
2017-12-03T07:02:56.612Z,24.63
2017-12-03T07:05:24.731Z,23.63
2017-12-03T07:07:53.004Z,20.70
2017-12-03T07:10:21.136Z,21.67
2017-12-03T07:12:49.211Z,18.80
2017-12-03T07:15:17.464Z,25.80
2017-12-03T07:17:45.655Z,24.00
2017-12-03T07:20:13.971Z,17.90
2017-12-03T07:22:42.421Z,24.13
2017-12-03T07:25:10.660Z,19.20
2017-12-03T07:27:39.523Z,24.97
2017-12-03T07:30:07.769Z,15.87
2017-12-03T07:32:35.960Z,18.53
2017-12-03T07:35:04.171Z,16.93
2017-12-03T07:37:33.200Z,19.30
2017-12-03T07:40:01.388Z,18.97
2017-12-03T07:42:29.791Z,22.57
2017-12-03T07:44:58.203Z,15.77
2017-12-03T07:47:27.316Z,18.97
2017-12-03T07:49:56.248Z,17.00
2017-12-03T07:52:24.503Z,23.53
2017-12-03T07:54:52.627Z,15.83
2017-12-03T07:57:20.868Z,21.80
2017-12-03T07:59:49.091Z,15.87
2017-12-03T08:02:17.332Z,20.73
2017-12-03T08:04:45.483Z,16.00
2017-12-03T08:07:13.807Z,18.93
2017-12-03T08:09:41.935Z,24.53
2017-12-03T08:12:09.982Z,15.40
2017-12-03T08:14:39.051Z,21.60
2017-12-03T08:17:07.154Z,21.97
2017-12-03T08:19:36.123Z,17.50
2017-12-03T08:22:04.379Z,20.20
2017-12-03T08:24:32.639Z,22.73
2017-12-03T08:27:00.864Z,21.07
2017-12-03T08:29:29.195Z,23.17
2017-12-03T08:31:57.286Z,24.20
2017-12-03T08:34:25.460Z,18.87
2017-12-03T08:36:53.635Z,20.50
2017-12-03T08:39:21.716Z,23.50
2017-12-03T08:41:49.847Z,25.93
2017-12-03T08:44:18.119Z,18.67
2017-12-03T08:46:46.327Z,22.33
2017-12-03T08:49:14.611Z,21.87
2017-12-03T08:51:42.819Z,16.43
2017-12-03T08:54:10.946Z,16.97
2017-12-03T08:56:39.033Z,16.73
2017-12-03T08:59:07.347Z,17.40
2017-12-03T09:01:35.442Z,16.23
2017-12-03T09:04:04.303Z,22.53
2017-12-03T09:06:32.609Z,19.00
2017-12-03T09:09:01.568Z,24.70
2017-12-03T09:11:29.816Z,18.63
2017-12-03T09:13:58.131Z,15.90
2017-12-03T09:16:26.270Z,24.30
2017-12-03T09:18:54.484Z,19.30
2017-12-03T09:21:22.811Z,27.70
2017-12-03T09:23:50.911Z,22.33
2017-12-03T09:26:19.099Z,20.17
2017-12-03T09:28:47.335Z,17.43
2017-12-03T09:31:15.407Z,21.40
2017-12-03T09:33:43.515Z,14.73
2017-12-03T09:36:11.671Z,18.07
2017-12-03T09:38:39.731Z,19.17
2017-12-03T09:41:07.960Z,24.97
2017-12-03T09:43:36.240Z,19.63
2017-12-03T09:46:04.408Z,20.63
2017-12-03T09:48:32.687Z,18.03
2017-12-03T09:51:01.227Z,14.03
2017-12-03T09:53:29.418Z,17.60
2017-12-03T09:55:57.635Z,17.93
2017-12-03T09:58:26.707Z,17.00
2017-12-03T10:00:54.931Z,21.23
2017-12-03T10:03:23.087Z,17.03
2017-12-03T10:05:52.019Z,18.63
2017-12-03T10:08:20.224Z,13.13
2017-12-03T10:10:48.383Z,17.93
2017-12-03T10:13:16.638Z,11.80
2017-12-03T10:15:44.739Z,17.83
2017-12-03T10:18:12.762Z,13.60
2017-12-03T10:20:41.738Z,16.57
2017-12-03T10:23:09.943Z,10.97
2017-12-03T10:25:38.099Z,16.47
2017-12-03T10:28:07.180Z,12.80
2017-12-03T10:30:35.259Z,16.00
2017-12-03T10:33:03.477Z,19.43
2017-12-03T10:35:31.796Z,19.20
2017-12-03T10:38:11.255Z,18.53
2017-12-03T10:40:39.490Z,13.20
2017-12-03T10:43:07.567Z,16.07
2017-12-03T10:45:35.624Z,23.70
2017-12-03T10:48:03.816Z,15.40
2017-12-03T10:50:31.928Z,17.87
2017-12-03T10:53:01.015Z,16.30
2017-12-03T10:55:29.207Z,15.07
2017-12-03T10:57:57.987Z,16.20
2017-12-03T11:00:26.203Z,14.80
2017-12-03T11:02:54.705Z,15.40
2017-12-03T11:05:23.110Z,21.80
2017-12-03T11:07:51.336Z,11.43
2017-12-03T11:10:19.648Z,13.80
2017-12-03T11:12:47.744Z,14.30
2017-12-03T11:15:15.828Z,20.87
2017-12-03T11:17:44.030Z,26.53
2017-12-03T11:20:12.108Z,16.63
2017-12-03T11:22:40.298Z,16.20
2017-12-03T11:25:08.592Z,13.07
2017-12-03T11:27:36.763Z,19.67
2017-12-03T11:30:04.830Z,13.57
2017-12-03T11:32:33.174Z,16.77
2017-12-03T11:35:02.087Z,17.43
2017-12-03T11:37:30.283Z,20.47
2017-12-03T11:39:58.419Z,20.50
2017-12-03T11:42:27.183Z,16.27
2017-12-03T11:44:55.260Z,17.57
2017-12-03T11:47:24.302Z,33.83
2017-12-03T11:49:52.328Z,25.40
2017-12-03T11:52:20.367Z,23.47
2017-12-03T11:54:48.692Z,28.37
2017-12-03T11:57:17.459Z,31.60
2017-12-03T11:59:45.516Z,30.07
2017-12-03T12:02:13.703Z,32.13
2017-12-03T12:04:41.725Z,31.53
2017-12-03T12:07:09.747Z,30.13
2017-12-03T12:09:37.888Z,27.03
2017-12-03T12:12:05.968Z,31.83
2017-12-03T12:14:33.987Z,28.50
2017-12-03T12:17:02.883Z,29.63
2017-12-03T12:19:31.671Z,28.20
2017-12-03T12:22:00.456Z,25.30
2017-12-03T12:24:29.383Z,28.10
2017-12-03T12:26:57.444Z,24.17
2017-12-03T12:29:26.379Z,28.70
2017-12-03T12:31:54.663Z,24.70
2017-12-03T12:34:22.711Z,32.30
2017-12-03T12:36:50.741Z,30.43
2017-12-03T12:39:20.532Z,28.60
2017-12-03T12:41:48.587Z,24.83
2017-12-03T12:44:16.771Z,30.93
2017-12-03T12:46:45.120Z,26.83
2017-12-03T12:49:13.184Z,30.73
2017-12-03T12:51:41.256Z,27.07
2017-12-03T12:54:09.398Z,29.53
2017-12-03T12:56:38.376Z,26.10
2017-12-03T12:59:06.602Z,26.83
2017-12-03T13:01:34.764Z,27.60
2017-12-03T13:04:03.576Z,30.20
2017-12-03T13:06:31.643Z,28.07
2017-12-03T13:08:59.844Z,31.50
2017-12-03T13:11:27.863Z,32.57
2017-12-03T13:13:56.623Z,31.50
2017-12-03T13:16:24.798Z,41.43
2017-12-03T13:18:52.864Z,30.03
2017-12-03T13:21:20.926Z,33.97
2017-12-03T13:23:49.094Z,34.97
2017-12-03T13:26:17.144Z,45.40
2017-12-03T13:28:45.188Z,43.87
2017-12-03T13:31:14.083Z,37.97
2017-12-03T13:33:42.876Z,40.57
2017-12-03T13:36:11.642Z,44.80
2017-12-03T13:38:39.851Z,43.83
2017-12-03T13:41:08.656Z,36.40
2017-12-03T13:43:36.741Z,39.90
2017-12-03T13:46:04.946Z,27.83
2017-12-03T13:48:32.992Z,34.57
2017-12-03T13:51:01.097Z,28.40
2017-12-03T13:53:29.291Z,42.67
2017-12-03T13:55:58.146Z,48.37
2017-12-03T13:58:26.463Z,38.27
2017-12-03T14:00:55.391Z,36.50
2017-12-03T14:03:23.445Z,38.33
2017-12-03T14:05:52.228Z,36.60
2017-12-03T14:08:21.258Z,31.50
2017-12-03T14:10:49.360Z,30.10
2017-12-03T14:13:17.551Z,28.83
2017-12-03T14:15:45.775Z,24.00
2017-12-03T14:18:13.835Z,27.17
2017-12-03T14:20:41.940Z,38.10
2017-12-03T14:23:10.170Z,36.37
2017-12-03T14:25:39.212Z,21.70
2017-12-03T14:28:07.345Z,29.73
2017-12-03T14:30:52.307Z,26.27
2017-12-03T14:33:35.531Z,19.07
2017-12-03T14:36:55.733Z,23.00
2017-12-03T14:39:31.717Z,24.90
2017-12-03T14:42:01.674Z,26.53
2017-12-03T14:44:29.826Z,25.87
2017-12-03T14:46:58.122Z,29.53
2017-12-03T14:49:26.385Z,27.70
2017-12-03T14:51:54.415Z,31.10
2017-12-03T14:54:23.389Z,23.93
2017-12-03T14:56:52.993Z,30.50
2017-12-03T14:59:21.200Z,30.73
2017-12-03T15:01:49.284Z,41.17
2017-12-03T15:04:17.478Z,29.20
2017-12-03T15:06:45.515Z,35.50
2017-12-03T15:09:14.310Z,35.93
2017-12-03T15:11:42.484Z,26.63
2017-12-03T15:14:11.319Z,31.00
2017-12-03T15:16:39.431Z,24.70
2017-12-03T15:19:09.354Z,30.63
2017-12-03T15:21:39.387Z,33.33
2017-12-03T15:24:07.728Z,31.60
2017-12-03T15:26:36.154Z,37.57
2017-12-03T15:29:04.402Z,26.23
2017-12-03T15:31:33.350Z,37.10
2017-12-03T15:34:01.679Z,35.33
2017-12-03T15:36:30.707Z,35.07
2017-12-03T15:38:58.993Z,26.40
2017-12-03T15:41:27.319Z,29.57
2017-12-03T15:43:55.612Z,35.60
2017-12-03T15:46:24.635Z,42.33
2017-12-03T15:48:53.038Z,32.30
2017-12-03T15:51:21.235Z,29.90
2017-12-03T15:53:49.471Z,30.80
2017-12-03T15:56:17.843Z,22.13
2017-12-03T15:58:45.968Z,27.20
2017-12-03T16:01:14.379Z,25.40
2017-12-03T16:03:43.418Z,28.63
2017-12-03T16:06:11.611Z,21.23
2017-12-03T16:08:39.795Z,23.87
2017-12-03T16:11:07.951Z,17.70
2017-12-03T16:13:36.035Z,21.97
2017-12-03T16:16:04.107Z,20.73
2017-12-03T16:18:32.300Z,25.70
2017-12-03T16:21:00.470Z,21.20
2017-12-03T16:23:33.118Z,22.57
2017-12-03T16:26:01.515Z,26.43
2017-12-03T16:28:29.683Z,29.70
2017-12-03T16:30:57.792Z,25.60
2017-12-03T16:33:26.702Z,27.20
2017-12-03T16:35:55.490Z,24.27
2017-12-03T16:38:24.269Z,26.13
2017-12-03T16:40:53.219Z,21.80
2017-12-03T16:43:21.579Z,29.63
2017-12-03T16:45:49.695Z,26.13
2017-12-03T16:48:17.940Z,29.93
2017-12-03T16:50:46.024Z,33.30
2017-12-03T16:53:14.103Z,24.53
2017-12-03T16:55:42.310Z,20.93
2017-12-03T16:58:11.136Z,30.43
2017-12-03T17:00:39.324Z,22.83
2017-12-03T17:03:07.655Z,26.20
2017-12-03T17:05:35.776Z,22.20
2017-12-03T17:08:03.843Z,21.90
2017-12-03T17:10:32.034Z,32.30
2017-12-03T17:13:00.096Z,24.73
2017-12-03T17:15:28.159Z,30.17
2017-12-03T17:17:56.467Z,23.30
2017-12-03T17:20:24.691Z,28.53
2017-12-03T17:22:53.620Z,26.20
2017-12-03T17:25:22.174Z,20.17
2017-12-03T17:27:51.202Z,30.00
2017-12-03T17:30:19.455Z,25.07
2017-12-03T17:32:47.875Z,25.63
2017-12-03T17:35:16.003Z,29.63
2017-12-03T17:37:44.783Z,36.00
2017-12-03T17:40:13.687Z,38.10
2017-12-03T17:42:41.717Z,32.83
2017-12-03T17:45:09.747Z,37.20
2017-12-03T17:47:37.981Z,24.93
2017-12-03T17:50:06.010Z,26.47
2017-12-03T17:52:34.071Z,27.83
2017-12-03T17:55:02.242Z,44.60
2017-12-03T17:57:30.299Z,32.73
2017-12-03T17:59:59.091Z,33.97
2017-12-03T18:02:27.287Z,36.50
2017-12-03T18:04:55.492Z,42.50
2017-12-03T18:07:23.553Z,54.13
2017-12-03T18:09:51.736Z,43.07
2017-12-03T18:12:19.755Z,41.33
2017-12-03T18:14:48.539Z,44.57
2017-12-03T18:17:18.692Z,37.27
2017-12-03T18:19:46.771Z,38.73
2017-12-03T18:22:14.816Z,35.40
2017-12-03T18:24:43.067Z,37.87
2017-12-03T18:27:11.176Z,38.53
2017-12-03T18:29:39.240Z,29.77
2017-12-03T18:32:08.188Z,45.30
2017-12-03T18:34:36.242Z,40.97
2017-12-03T18:37:04.407Z,39.47
2017-12-03T18:39:32.727Z,32.73
2017-12-03T18:42:00.947Z,58.10
2017-12-03T18:44:29.337Z,35.30
2017-12-03T18:46:57.758Z,42.97
2017-12-03T18:49:25.995Z,34.93
2017-12-03T18:51:54.224Z,42.20
2017-12-03T18:54:22.612Z,38.93
2017-12-03T18:56:51.648Z,50.23
2017-12-03T18:59:19.871Z,42.77
2017-12-03T19:01:48.191Z,59.83
2017-12-03T19:04:16.439Z,35.10
2017-12-03T19:06:45.404Z,36.23
2017-12-03T19:09:13.594Z,59.80
2017-12-03T19:11:41.691Z,62.97
2017-12-03T19:14:10.575Z,33.70
2017-12-03T19:16:39.563Z,27.37
2017-12-03T19:19:07.633Z,33.33
2017-12-03T19:21:35.691Z,42.87
2017-12-03T19:24:03.916Z,33.47
2017-12-03T19:26:31.983Z,37.77
2017-12-03T19:29:00.787Z,34.77
2017-12-03T19:31:29.004Z,34.70
2017-12-03T19:33:57.084Z,33.90
2017-12-03T19:36:25.167Z,28.43
2017-12-03T19:38:53.322Z,29.47
2017-12-03T19:41:21.415Z,28.90
2017-12-03T19:43:49.451Z,24.40
2017-12-03T19:46:17.675Z,26.97
2017-12-03T19:48:46.459Z,34.50
2017-12-03T19:51:15.227Z,33.30
2017-12-03T19:53:43.420Z,27.40
2017-12-03T19:56:11.683Z,24.67
2017-12-03T19:58:39.900Z,32.00
2017-12-03T20:01:08.075Z,24.40
2017-12-03T20:03:36.191Z,37.47
2017-12-03T20:06:04.456Z,36.77
2017-12-03T20:08:32.847Z,22.20
2017-12-03T20:11:00.900Z,28.53
2017-12-03T20:13:28.976Z,17.33
2017-12-03T20:15:57.220Z,30.73
2017-12-03T20:18:26.019Z,16.30
2017-12-03T20:20:54.086Z,21.33
2017-12-03T20:23:23.003Z,27.97
2017-12-03T20:25:51.067Z,22.83
2017-12-03T20:28:19.194Z,28.30
2017-12-03T20:30:47.530Z,31.27
2017-12-03T20:33:15.617Z,36.03
2017-12-03T20:35:43.851Z,31.77
2017-12-03T20:38:12.931Z,24.63
2017-12-03T20:40:41.977Z,44.30
2017-12-03T20:43:10.212Z,27.33
2017-12-03T20:45:39.352Z,23.43
2017-12-03T20:48:07.443Z,31.47
2017-12-03T20:50:35.639Z,29.40
2017-12-03T20:53:03.867Z,46.00
2017-12-03T20:55:31.935Z,45.43
2017-12-03T20:57:59.997Z,30.40
2017-12-03T21:00:28.439Z,35.07
2017-12-03T21:02:56.483Z,23.40
2017-12-03T21:05:24.607Z,28.47
2017-12-03T21:07:53.579Z,22.33
2017-12-03T21:10:21.755Z,32.63
2017-12-03T21:12:49.818Z,23.20
2017-12-03T21:15:18.183Z,25.83
2017-12-03T21:17:46.348Z,30.73
2017-12-03T21:20:14.407Z,24.40
2017-12-03T21:22:42.587Z,26.93
2017-12-03T21:25:10.639Z,44.13
2017-12-03T21:27:39.480Z,31.23
2017-12-03T21:30:07.814Z,25.57
2017-12-03T21:32:35.908Z,34.43
2017-12-03T21:35:04.141Z,35.57
2017-12-03T21:37:33.115Z,21.20
2017-12-03T21:40:01.179Z,36.53
2017-12-03T21:42:29.291Z,36.10
2017-12-03T21:44:58.359Z,28.43
2017-12-03T21:47:26.426Z,33.93
2017-12-03T21:49:54.450Z,39.43
2017-12-03T21:52:22.623Z,28.67
2017-12-03T21:54:50.781Z,48.57
2017-12-03T21:57:19.015Z,34.53
2017-12-03T21:59:47.143Z,37.20
2017-12-03T22:02:15.899Z,48.80
2017-12-03T22:04:43.922Z,38.60
2017-12-03T22:07:12.075Z,31.17
2017-12-03T22:09:40.876Z,39.90
2017-12-03T22:12:09.150Z,41.77
2017-12-03T22:14:37.319Z,31.00
2017-12-03T22:17:06.114Z,29.23
2017-12-03T22:19:34.155Z,39.60
2017-12-03T22:22:02.294Z,39.17
2017-12-03T22:24:30.344Z,36.60
2017-12-03T22:26:58.404Z,34.90
2017-12-03T22:29:26.559Z,30.87
2017-12-03T22:31:55.338Z,40.13
2017-12-03T22:47:17.766Z,50.20
2017-12-03T22:49:45.779Z,44.80
2017-12-03T22:52:13.802Z,29.67
2017-12-03T22:54:41.999Z,46.17
2017-12-03T22:57:10.036Z,60.93
2017-12-03T22:59:38.092Z,42.90
2017-12-03T23:02:06.283Z,46.57
2017-12-03T23:04:34.303Z,44.93
2017-12-03T23:07:03.051Z,44.07
2017-12-03T23:09:31.211Z,53.80
2017-12-03T23:11:59.255Z,74.13
2017-12-03T23:14:27.584Z,64.13
2017-12-03T23:16:55.871Z,59.53
2017-12-03T23:19:23.919Z,75.87
2017-12-03T23:21:51.935Z,69.37
2017-12-03T23:24:20.835Z,42.50
2017-12-03T23:26:49.927Z,54.30
2017-12-03T23:29:18.907Z,64.37
2017-12-03T23:31:47.039Z,50.40
2017-12-03T23:34:15.163Z,59.63
2017-12-03T23:36:43.921Z,57.63
2017-12-03T23:39:12.147Z,73.10
2017-12-03T23:41:40.196Z,44.80
2017-12-03T23:44:08.255Z,54.43
2017-12-03T23:46:36.595Z,54.10
2017-12-03T23:49:04.682Z,57.30
2017-12-03T23:51:33.003Z,71.30
2017-12-03T23:54:01.988Z,57.83
2017-12-03T23:56:30.055Z,59.77
2017-12-03T23:58:58.159Z,60.83
